Flight Track Log - Related Links

Times and Time Zones

All times are in EDT time to prevent confusion due to time zone crossing. See the N201LP flight status page for this flight to view local times or setup timezone preferences in your user account.

Time Position Orientation Groundspeed Altitude Reporting Facility
EDT Latitude Longitude Course Direction KTS MPH feet Rate Location/Type
Sat 11:20:41 AM 37.8728 -80.3378 95° East 136 157 3,900  Level Washington Center
Sat 11:21:41 AM 37.8783 -80.3039 78° East 107 123 4,200 350 Climbing Washington Center
Sat 11:22:00 AM 37.9515 -80.1613 88° East  Level Estimated
Sat 11:22:41 AM 37.8858 -80.2700 74° East 99 114 4,600  Level Washington Center
Sat 11:23:00 AM 37.9477 -80.1083 95° East  Level FlightAware
Sat 11:23:41 AM 37.8856 -80.2281 90° East 106 122 5,200  Level Washington Center
Sat 11:24:41 AM 37.8767 -80.1853 105° East 118 136 5,700 500 Climbing Washington Center
Sat 11:25:41 AM 37.8681 -80.1400 104° East 124 143 6,200 550 Climbing Washington Center
Sat 11:26:41 AM 37.8883 -80.0992 58° Northeast 119 137 6,800 400 Climbing Washington Center
Sat 11:27:41 AM 37.9169 -80.0561 50° Northeast 132 152 7,000 100 Climbing Washington Center
Sat 11:28:41 AM 37.9439 -80.0103 53° Northeast 151 174 7,000 50 Level Washington Center
Sat 11:29:41 AM 37.9706 -79.9644 54° Northeast 156 180 7,100 50 Climbing Washington Center
Sat 11:30:41 AM 38.0011 -79.9242 46° Northeast 156 180 7,100 -50 Level Washington Center
Sat 11:31:42 AM 38.0297 -79.8861 46° Northeast 156 180 7,000 -50 Descending Washington Center
Sat 11:32:41 AM 38.0583 -79.8456 48° Northeast 156 180 7,000  Level Washington Center
Sat 11:33:41 AM 38.0889 -79.8053 46° Northeast 156 180 7,000 50 Level Washington Center
Sat 11:34:41 AM 38.1175 -79.7647 48° Northeast 156 180 7,100 50 Climbing Washington Center
Sat 11:35:41 AM 38.1481 -79.7242 46° Northeast 156 180 7,100  Level Washington Center
Sat 11:36:41 AM 38.1808 -79.6756 49° Northeast 156 180 7,100 -50 Level Washington Center
Sat 11:37:41 AM 38.2072 -79.6347 51° Northeast 156 180 7,000 -50 Descending Washington Center
Sat 11:38:41 AM 38.2378 -79.5942 46° Northeast 156 180 7,000 -50 Level Washington Center
Sat 11:39:41 AM 38.2644 -79.5506 52° Northeast 156 180 6,900  Descending Washington Center
Sat 11:40:41 AM 38.2906 -79.5150 47° Northeast 156 180 7,000 50 Climbing Washington Center
Sat 11:41:41 AM 38.3172 -79.4689 54° Northeast 156 180 7,000  Level Washington Center
Sat 11:42:41 AM 38.3456 -79.4278 49° Northeast 156 180 7,000 50 Level Washington Center
Sat 11:43:41 AM 38.3739 -79.3897 46° Northeast 156 180 7,100 50 Climbing Washington Center
Sat 11:44:41 AM 38.4067 -79.3436 48° Northeast 156 180 7,100 -50 Level Washington Center
Sat 11:45:41 AM 38.4372 -79.3000 48° Northeast 156 180 7,000 -50 Descending Washington Center
Sat 11:46:41 AM 38.4656 -79.2564 50° Northeast 156 180 7,000 -50 Level Washington Center
Sat 11:47:41 AM 38.4919 -79.2100 54° Northeast 156 180 6,900  Descending Washington Center
Sat 11:48:41 AM 38.5183 -79.1686 51° Northeast 156 180 7,000 50 Climbing Washington Center
Sat 11:49:41 AM 38.5406 -79.1194 60° Northeast 156 180 7,000 50 Level Washington Center
Sat 11:50:41 AM 38.5711 -79.0703 52° Northeast 156 180 7,100  Climbing Washington Center
Sat 11:51:41 AM 38.5994 -79.0267 50° Northeast 156 180 7,000 -50 Descending Washington Center
Sat 11:52:41 AM 38.6258 -78.9800 54° Northeast 156 180 7,000  Level Washington Center
Sat 11:53:41 AM 38.6481 -78.9383 56° Northeast 150 173 7,000  Level Washington Center
Sat 11:54:41 AM 38.6764 -78.8944 50° Northeast 150 173 7,000 50 Level Washington Center
Sat 11:55:41 AM 38.7025 -78.8478 54° Northeast 150 173 7,100  Climbing Washington Center
Sat 11:56:41 AM 38.7308 -78.8039 50° Northeast 150 173 7,000 -50 Descending Washington Center
Sat 11:57:41 AM 38.7653 -78.7681 39° Northeast 155 178 7,000  Level Washington Center
Sat 11:58:41 AM 38.7975 -78.7267 45° Northeast 155 178 7,000  Level Washington Center
Sat 11:59:41 AM 38.8256 -78.6853 49° Northeast 155 178 7,000  Level Washington Center
Sat 12:00:41 PM 38.8561 -78.6414 48° Northeast 160 184 7,000  Level Washington Center
Sat 12:01:41 PM 38.8864 -78.5972 49° Northeast 160 184 7,000 -50 Level Washington Center
Sat 12:02:41 PM 38.9144 -78.5531 51° Northeast 160 184 6,900  Descending Washington Center
Sat 12:03:41 PM 38.9447 -78.5117 47° Northeast 160 184 7,000 50 Climbing Washington Center
Sat 12:04:41 PM 38.9708 -78.4697 51° Northeast 155 178 7,000 50 Level Washington Center
Sat 12:05:41 PM 39.0008 -78.4256 49° Northeast 155 178 7,100 50 Climbing Washington Center
Sat 12:06:41 PM 39.0269 -78.3839 51° Northeast 155 178 7,100  Level Washington Center
Sat 12:07:41 PM 39.0550 -78.3394 51° Northeast 160 184 7,100 -50 Level Washington Center
Sat 12:08:41 PM 39.0853 -78.2953 49° Northeast 160 184 7,000 -50 Descending Washington Center
Sat 12:09:41 PM 39.1133 -78.2481 53° Northeast 160 184 7,000  Level Washington Center
Sat 12:10:41 PM 39.1394 -78.2008 55° Northeast 160 184 7,000 50 Level Washington Center
Sat 12:11:41 PM 39.1653 -78.1589 52° Northeast 155 178 7,100 50 Climbing Washington Center
Sat 12:12:41 PM 39.1914 -78.1117 54° Northeast 155 178 7,100 -50 Level Washington Center
Sat 12:13:41 PM 39.2236 -78.0672 47° Northeast 155 178 7,000 -348 Descending Washington Center
Sat 12:16:08 PM 39.3000 -77.9500 50° Northeast 179 206 5,900 -464 Descending Potomac TRACON
Sat 12:17:08 PM 39.3333 -77.9000 49° Northeast 174 200 5,400 -446 Descending Potomac TRACON
Sat 12:18:09 PM 39.3667 -77.8500 49° Northeast 172 198 5,000 -248 Descending Potomac TRACON
Sat 12:19:09 PM 39.3833 -77.8000 67° East 162 186 4,900  Descending Potomac TRACON
Sat 12:20:09 PM 39.4000 -77.7333 72° East 159 183 5,000 -50 Climbing Potomac TRACON
Sat 12:21:09 PM 39.4000 -77.6833 90° East 161 185 4,800 -350 Descending Potomac TRACON
Sat 12:22:09 PM 39.4000 -77.6167 90° East 167 192 4,300 -417 Descending Potomac TRACON
Sat 12:23:04 PM 39.4167 -77.5667 67° East 169 194 4,000 -261 Descending Potomac TRACON
Sat 12:24:04 PM 39.4167 -77.5167 90° East 164 189 3,800 53 Descending Potomac TRACON
Sat 12:24:58 PM 39.4333 -77.4667 67° East 150 173 4,100 105 Climbing Potomac TRACON
Sat 12:25:58 PM 39.4333 -77.4167 90° East 151 174 4,000 -50 Descending Potomac TRACON
Sat 12:26:58 PM 39.4500 -77.3667 67° East 147 169 4,000 52 Level Potomac TRACON
Sat 12:27:53 PM 39.4500 -77.3167 90° East 141 162 4,100  Climbing Potomac TRACON
Sat 12:28:53 PM 39.4500 -77.2667 90° East 144 166 4,000 -50 Descending Potomac TRACON
Sat 12:29:53 PM 39.4667 -77.2167 67° East 144 166 4,000  Level Potomac TRACON
Sat 12:30:54 PM 39.4667 -77.1667 90° East 151 174 4,000 50 Level Potomac TRACON
Sat 12:31:54 PM 39.4833 -77.1000 72° East 149 171 4,100  Climbing Potomac TRACON
Sat 12:32:49 PM 39.4833 -77.0500 90° East 163 188 4,000 -99 Descending Potomac TRACON
Sat 12:33:55 PM 39.4833 -76.9833 90° East 161 185 3,900 -95 Descending Potomac TRACON
Sat 12:34:55 PM 39.4667 -76.9333 113° Southeast 153 176 3,800 -250 Descending Potomac TRACON
Sat 12:35:55 PM 39.4667 -76.8833 90° East 162 186 3,400 -446 Descending Potomac TRACON
Sat 12:36:56 PM 39.4667 -76.8167 90° East 159 183 2,900 -261 Descending Potomac TRACON
Sat 12:37:50 PM 39.4667 -76.7667 90° East 152 175 2,900 53 Level Potomac TRACON
Sat 12:38:50 PM 39.4500 -76.7167 113° Southeast 153 176 3,000 50 Climbing Potomac TRACON
Sat 12:39:50 PM 39.4333 -76.6667 113° Southeast 157 181 3,000 149 Level Potomac TRACON
Sat 12:40:51 PM 39.4167 -76.6333 123° Southeast 155 178 3,300 50 Climbing Potomac TRACON
Sat 12:41:51 PM 39.3833 -76.5833 131° Southeast 160 184 3,100 -250 Descending Potomac TRACON
Sat 12:42:51 PM 39.3500 -76.5500 142° Southeast 151 174 2,800 -50 Descending Potomac TRACON
Sat 12:43:52 PM 39.3167 -76.5000 131° Southeast 140 161 3,000  Climbing Potomac TRACON
Sat 12:44:52 PM 39.3000 -76.4667 123° Southeast 143 165 2,800 -500 Descending Potomac TRACON
Sat 12:45:52 PM 39.2667 -76.4333 142° Southeast 155 178 2,000 -800 Descending Potomac TRACON
Sat 12:46:52 PM 39.3000 -76.3833 49° Northeast 138 159 1,200 -800 Descending Potomac TRACON
Sat 12:48:00 PM 39.3167 -76.4000 322° Northwest  Level FlightAware
Sat 12:55:00 PM 39.3257 -76.4138 322° Northwest  Level Estimated
Sat 12:56:00 PM 39.3257 -76.4138 322° Northwest  Level Estimated
Sat 12:57:00 PM 39.3257 -76.4138 322° Northwest  Level Estimated
Sat 12:58:00 PM 39.3257 -76.4138 322° Northwest  Level Estimated
Sat 12:59:00 PM 39.3257 -76.4138 322° Northwest  Level Estimated

Login

Don't have an account? Register now (free) for customized features, flight alerts, and more!